sensor_id;sensor_type;location;lat;lon;timestamp;P1;durP1;ratioP1;P2;durP2;ratioP2
15363;SDS011;7781;49.690;6.472;2023-08-30T00:01:31;19.20;;;7.10;;
15363;SDS011;7781;49.690;6.472;2023-08-30T00:04:00;65.90;;;8.73;;
15363;SDS011;7781;49.690;6.472;2023-08-30T00:06:29;18.33;;;8.77;;
15363;SDS011;7781;49.690;6.472;2023-08-30T00:08:58;44.37;;;9.60;;
15363;SDS011;7781;49.690;6.472;2023-08-30T00:11:28;56.23;;;9.23;;
15363;SDS011;7781;49.690;6.472;2023-08-30T00:14:02;68.30;;;10.07;;
15363;SDS011;7781;49.690;6.472;2023-08-30T00:16:32;30.10;;;10.00;;
15363;SDS011;7781;49.690;6.472;2023-08-30T00:19:01;28.23;;;9.30;;
15363;SDS011;7781;49.690;6.472;2023-08-30T00:21:30;106.47;;;11.30;;
15363;SDS011;7781;49.690;6.472;2023-08-30T00:23:58;27.30;;;10.00;;
15363;SDS011;7781;49.690;6.472;2023-08-30T00:26:28;85.90;;;8.80;;
15363;SDS011;7781;49.690;6.472;2023-08-30T00:28:59;79.13;;;9.10;;
15363;SDS011;7781;49.690;6.472;2023-08-30T00:31:28;17.27;;;7.23;;
15363;SDS011;7781;49.690;6.472;2023-08-30T00:33:57;16.07;;;6.77;;
15363;SDS011;7781;49.690;6.472;2023-08-30T00:36:25;7.87;;;6.70;;
15363;SDS011;7781;49.690;6.472;2023-08-30T00:38:54;10.63;;;7.27;;
15363;SDS011;7781;49.690;6.472;2023-08-30T00:41:23;8.90;;;6.97;;
15363;SDS011;7781;49.690;6.472;2023-08-30T00:43:53;7.43;;;6.00;;
15363;SDS011;7781;49.690;6.472;2023-08-30T00:46:24;10.57;;;6.20;;
15363;SDS011;7781;49.690;6.472;2023-08-30T00:48:55;15.00;;;6.67;;
15363;SDS011;7781;49.690;6.472;2023-08-30T00:51:23;9.00;;;7.17;;
15363;SDS011;7781;49.690;6.472;2023-08-30T00:53:53;41.07;;;7.50;;
15363;SDS011;7781;49.690;6.472;2023-08-30T00:56:22;10.83;;;7.00;;
15363;SDS011;7781;49.690;6.472;2023-08-30T00:58:52;17.20;;;6.30;;
15363;SDS011;7781;49.690;6.472;2023-08-30T01:01:21;38.80;;;7.70;;
15363;SDS011;7781;49.690;6.472;2023-08-30T01:03:52;9.20;;;6.87;;
15363;SDS011;7781;49.690;6.472;2023-08-30T01:06:22;11.33;;;6.33;;
15363;SDS011;7781;49.690;6.472;2023-08-30T01:08:51;10.50;;;7.70;;
15363;SDS011;7781;49.690;6.472;2023-08-30T01:11:21;27.00;;;8.33;;
15363;SDS011;7781;49.690;6.472;2023-08-30T01:14:00;14.80;;;8.07;;
15363;SDS011;7781;49.690;6.472;2023-08-30T01:16:32;13.60;;;7.80;;
15363;SDS011;7781;49.690;6.472;2023-08-30T01:19:06;12.57;;;7.63;;
15363;SDS011;7781;49.690;6.472;2023-08-30T01:21:50;12.00;;;8.27;;
15363;SDS011;7781;49.690;6.472;2023-08-30T01:24:24;38.77;;;8.20;;
15363;SDS011;7781;49.690;6.472;2023-08-30T01:27:05;17.80;;;6.93;;
15363;SDS011;7781;49.690;6.472;2023-08-30T01:29:39;16.70;;;8.30;;
15363;SDS011;7781;49.690;6.472;2023-08-30T01:32:12;26.00;;;7.47;;
15363;SDS011;7781;49.690;6.472;2023-08-30T01:34:46;26.83;;;7.50;;
15363;SDS011;7781;49.690;6.472;2023-08-30T01:37:18;128.23;;;8.83;;
15363;SDS011;7781;49.690;6.472;2023-08-30T01:39:47;85.93;;;9.30;;
15363;SDS011;7781;49.690;6.472;2023-08-30T01:42:19;109.23;;;7.50;;
15363;SDS011;7781;49.690;6.472;2023-08-30T01:44:48;52.80;;;7.20;;
15363;SDS011;7781;49.690;6.472;2023-08-30T01:47:22;32.17;;;6.47;;
15363;SDS011;7781;49.690;6.472;2023-08-30T01:49:52;73.97;;;7.77;;
15363;SDS011;7781;49.690;6.472;2023-08-30T01:52:23;97.93;;;9.97;;
15363;SDS011;7781;49.690;6.472;2023-08-30T01:54:53;55.83;;;7.40;;
15363;SDS011;7781;49.690;6.472;2023-08-30T01:57:23;58.50;;;8.67;;
15363;SDS011;7781;49.690;6.472;2023-08-30T01:59:52;124.43;;;9.17;;
15363;SDS011;7781;49.690;6.472;2023-08-30T02:02:21;129.20;;;8.50;;
15363;SDS011;7781;49.690;6.472;2023-08-30T02:04:49;154.77;;;10.00;;
15363;SDS011;7781;49.690;6.472;2023-08-30T02:07:20;115.03;;;8.27;;
15363;SDS011;7781;49.690;6.472;2023-08-30T02:09:54;108.33;;;8.73;;
15363;SDS011;7781;49.690;6.472;2023-08-30T02:12:30;144.63;;;11.50;;
15363;SDS011;7781;49.690;6.472;2023-08-30T02:15:03;84.17;;;12.50;;
15363;SDS011;7781;49.690;6.472;2023-08-30T02:17:34;145.50;;;9.87;;
15363;SDS011;7781;49.690;6.472;2023-08-30T02:20:06;142.07;;;10.30;;
15363;SDS011;7781;49.690;6.472;2023-08-30T02:22:35;66.33;;;10.87;;
15363;SDS011;7781;49.690;6.472;2023-08-30T02:25:05;221.23;;;12.40;;
15363;SDS011;7781;49.690;6.472;2023-08-30T02:27:37;72.37;;;9.80;;
15363;SDS011;7781;49.690;6.472;2023-08-30T02:30:10;149.07;;;9.87;;
15363;SDS011;7781;49.690;6.472;2023-08-30T02:32:39;144.07;;;10.07;;
15363;SDS011;7781;49.690;6.472;2023-08-30T02:35:08;54.00;;;8.10;;
15363;SDS011;7781;49.690;6.472;2023-08-30T02:37:37;89.33;;;9.73;;
15363;SDS011;7781;49.690;6.472;2023-08-30T02:40:07;209.23;;;11.50;;
15363;SDS011;7781;49.690;6.472;2023-08-30T02:42:39;268.10;;;12.97;;
15363;SDS011;7781;49.690;6.472;2023-08-30T02:45:09;99.23;;;10.20;;
15363;SDS011;7781;49.690;6.472;2023-08-30T02:47:39;245.03;;;12.07;;
15363;SDS011;7781;49.690;6.472;2023-08-30T02:50:08;217.30;;;12.00;;
15363;SDS011;7781;49.690;6.472;2023-08-30T02:52:37;48.27;;;10.13;;
15363;SDS011;7781;49.690;6.472;2023-08-30T02:55:09;9.50;;;7.90;;
15363;SDS011;7781;49.690;6.472;2023-08-30T02:57:39;73.70;;;8.77;;
15363;SDS011;7781;49.690;6.472;2023-08-30T03:00:08;161.50;;;9.50;;
15363;SDS011;7781;49.690;6.472;2023-08-30T03:02:38;202.00;;;10.03;;
15363;SDS011;7781;49.690;6.472;2023-08-30T03:05:08;88.63;;;9.03;;
15363;SDS011;7781;49.690;6.472;2023-08-30T03:07:38;111.03;;;9.17;;
15363;SDS011;7781;49.690;6.472;2023-08-30T03:10:07;41.20;;;9.20;;
15363;SDS011;7781;49.690;6.472;2023-08-30T03:12:36;113.40;;;11.47;;
15363;SDS011;7781;49.690;6.472;2023-08-30T03:15:08;111.47;;;9.97;;
15363;SDS011;7781;49.690;6.472;2023-08-30T03:17:37;25.33;;;9.17;;
15363;SDS011;7781;49.690;6.472;2023-08-30T03:20:06;76.23;;;10.07;;
15363;SDS011;7781;49.690;6.472;2023-08-30T03:22:35;145.47;;;11.40;;
15363;SDS011;7781;49.690;6.472;2023-08-30T03:25:07;28.00;;;9.50;;
15363;SDS011;7781;49.690;6.472;2023-08-30T03:27:38;113.07;;;10.50;;
15363;SDS011;7781;49.690;6.472;2023-08-30T03:30:12;259.03;;;16.23;;
15363;SDS011;7781;49.690;6.472;2023-08-30T03:32:42;363.63;;;14.70;;
15363;SDS011;7781;49.690;6.472;2023-08-30T03:35:10;137.37;;;11.00;;
15363;SDS011;7781;49.690;6.472;2023-08-30T03:37:41;31.73;;;10.30;;
15363;SDS011;7781;49.690;6.472;2023-08-30T03:40:10;46.93;;;8.80;;
15363;SDS011;7781;49.690;6.472;2023-08-30T03:42:39;124.43;;;9.63;;
15363;SDS011;7781;49.690;6.472;2023-08-30T03:45:08;151.70;;;8.57;;
15363;SDS011;7781;49.690;6.472;2023-08-30T03:47:38;297.17;;;11.90;;
15363;SDS011;7781;49.690;6.472;2023-08-30T03:50:10;129.00;;;8.23;;
15363;SDS011;7781;49.690;6.472;2023-08-30T03:52:40;10.30;;;7.30;;
15363;SDS011;7781;49.690;6.472;2023-08-30T03:55:08;8.20;;;7.23;;
15363;SDS011;7781;49.690;6.472;2023-08-30T03:57:37;44.17;;;7.50;;
15363;SDS011;7781;49.690;6.472;2023-08-30T04:00:06;30.10;;;7.63;;
15363;SDS011;7781;49.690;6.472;2023-08-30T04:02:43;20.00;;;8.40;;
15363;SDS011;7781;49.690;6.472;2023-08-30T04:05:12;10.73;;;8.23;;
15363;SDS011;7781;49.690;6.472;2023-08-30T04:07:40;10.90;;;8.90;;
15363;SDS011;7781;49.690;6.472;2023-08-30T04:10:09;27.20;;;9.47;;
15363;SDS011;7781;49.690;6.472;2023-08-30T04:12:37;19.83;;;9.37;;
15363;SDS011;7781;49.690;6.472;2023-08-30T04:15:06;24.37;;;9.50;;
15363;SDS011;7781;49.690;6.472;2023-08-30T04:17:37;24.13;;;9.50;;
15363;SDS011;7781;49.690;6.472;2023-08-30T04:20:09;30.20;;;8.60;;
15363;SDS011;7781;49.690;6.472;2023-08-30T04:22:39;12.03;;;8.23;;
15363;SDS011;7781;49.690;6.472;2023-08-30T04:25:08;74.77;;;9.47;;
15363;SDS011;7781;49.690;6.472;2023-08-30T04:27:38;80.27;;;9.13;;
15363;SDS011;7781;49.690;6.472;2023-08-30T04:30:10;74.67;;;9.20;;
15363;SDS011;7781;49.690;6.472;2023-08-30T04:32:39;20.63;;;9.53;;
15363;SDS011;7781;49.690;6.472;2023-08-30T04:35:10;46.00;;;9.30;;
15363;SDS011;7781;49.690;6.472;2023-08-30T04:37:39;52.63;;;9.13;;
15363;SDS011;7781;49.690;6.472;2023-08-30T04:40:08;99.07;;;11.13;;
15363;SDS011;7781;49.690;6.472;2023-08-30T04:42:38;49.70;;;11.23;;
15363;SDS011;7781;49.690;6.472;2023-08-30T04:45:09;31.37;;;8.77;;
15363;SDS011;7781;49.690;6.472;2023-08-30T04:47:38;121.97;;;9.33;;
15363;SDS011;7781;49.690;6.472;2023-08-30T04:50:14;142.83;;;9.07;;
15363;SDS011;7781;49.690;6.472;2023-08-30T04:52:43;136.03;;;11.03;;
15363;SDS011;7781;49.690;6.472;2023-08-30T04:55:13;49.73;;;10.03;;
15363;SDS011;7781;49.690;6.472;2023-08-30T04:57:42;121.43;;;11.27;;
15363;SDS011;7781;49.690;6.472;2023-08-30T05:00:13;60.20;;;9.03;;
15363;SDS011;7781;49.690;6.472;2023-08-30T05:02:42;105.93;;;11.53;;
15363;SDS011;7781;49.690;6.472;2023-08-30T05:05:16;30.03;;;9.03;;
15363;SDS011;7781;49.690;6.472;2023-08-30T05:07:45;33.70;;;10.43;;
15363;SDS011;7781;49.690;6.472;2023-08-30T05:10:15;77.90;;;11.30;;
15363;SDS011;7781;49.690;6.472;2023-08-30T05:12:44;61.17;;;10.73;;
15363;SDS011;7781;49.690;6.472;2023-08-30T05:15:18;48.33;;;10.60;;
15363;SDS011;7781;49.690;6.472;2023-08-30T05:17:49;163.23;;;12.50;;
15363;SDS011;7781;49.690;6.472;2023-08-30T05:20:20;95.90;;;10.87;;
15363;SDS011;7781;49.690;6.472;2023-08-30T05:22:49;62.73;;;9.43;;
15363;SDS011;7781;49.690;6.472;2023-08-30T05:25:18;177.33;;;10.97;;
15363;SDS011;7781;49.690;6.472;2023-08-30T05:27:46;155.63;;;12.47;;
15363;SDS011;7781;49.690;6.472;2023-08-30T05:30:15;148.93;;;10.30;;
15363;SDS011;7781;49.690;6.472;2023-08-30T05:32:44;68.47;;;9.10;;
15363;SDS011;7781;49.690;6.472;2023-08-30T05:35:28;30.80;;;8.47;;
15363;SDS011;7781;49.690;6.472;2023-08-30T05:38:10;29.43;;;8.67;;
15363;SDS011;7781;49.690;6.472;2023-08-30T05:41:00;14.70;;;8.40;;
15363;SDS011;7781;49.690;6.472;2023-08-30T05:43:30;16.27;;;8.90;;
15363;SDS011;7781;49.690;6.472;2023-08-30T05:46:01;23.50;;;9.87;;
15363;SDS011;7781;49.690;6.472;2023-08-30T05:48:30;39.00;;;10.97;;
15363;SDS011;7781;49.690;6.472;2023-08-30T05:51:03;58.00;;;11.47;;
15363;SDS011;7781;49.690;6.472;2023-08-30T05:53:32;128.03;;;13.00;;
15363;SDS011;7781;49.690;6.472;2023-08-30T05:56:00;72.93;;;10.87;;
15363;SDS011;7781;49.690;6.472;2023-08-30T05:58:32;80.33;;;12.23;;
15363;SDS011;7781;49.690;6.472;2023-08-30T06:01:02;150.40;;;13.37;;
15363;SDS011;7781;49.690;6.472;2023-08-30T06:03:32;70.27;;;10.33;;
15363;SDS011;7781;49.690;6.472;2023-08-30T06:06:01;111.80;;;11.03;;
15363;SDS011;7781;49.690;6.472;2023-08-30T06:08:32;71.30;;;11.87;;
15363;SDS011;7781;49.690;6.472;2023-08-30T06:11:01;82.87;;;12.47;;
15363;SDS011;7781;49.690;6.472;2023-08-30T06:13:31;39.70;;;12.03;;
15363;SDS011;7781;49.690;6.472;2023-08-30T06:15:59;27.00;;;14.23;;
15363;SDS011;7781;49.690;6.472;2023-08-30T06:18:29;137.20;;;14.30;;
15363;SDS011;7781;49.690;6.472;2023-08-30T06:20:59;92.83;;;11.97;;
15363;SDS011;7781;49.690;6.472;2023-08-30T06:23:29;98.50;;;12.37;;
15363;SDS011;7781;49.690;6.472;2023-08-30T06:25:59;53.93;;;12.47;;
15363;SDS011;7781;49.690;6.472;2023-08-30T06:28:27;36.47;;;11.60;;
15363;SDS011;7781;49.690;6.472;2023-08-30T06:30:56;29.13;;;10.27;;
15363;SDS011;7781;49.690;6.472;2023-08-30T06:33:25;14.23;;;10.60;;
15363;SDS011;7781;49.690;6.472;2023-08-30T06:35:54;29.93;;;13.30;;
15363;SDS011;7781;49.690;6.472;2023-08-30T06:38:23;25.83;;;11.80;;
15363;SDS011;7781;49.690;6.472;2023-08-30T06:40:53;30.63;;;11.97;;
15363;SDS011;7781;49.690;6.472;2023-08-30T06:43:22;26.13;;;12.03;;
15363;SDS011;7781;49.690;6.472;2023-08-30T06:45:51;91.03;;;13.23;;
15363;SDS011;7781;49.690;6.472;2023-08-30T06:48:21;48.47;;;12.10;;
15363;SDS011;7781;49.690;6.472;2023-08-30T06:50:51;17.03;;;12.70;;
15363;SDS011;7781;49.690;6.472;2023-08-30T06:53:20;33.67;;;13.20;;
15363;SDS011;7781;49.690;6.472;2023-08-30T06:55:57;24.43;;;13.20;;
15363;SDS011;7781;49.690;6.472;2023-08-30T06:58:26;21.10;;;12.77;;
15363;SDS011;7781;49.690;6.472;2023-08-30T07:00:56;23.23;;;14.07;;
15363;SDS011;7781;49.690;6.472;2023-08-30T07:03:27;30.73;;;15.17;;
15363;SDS011;7781;49.690;6.472;2023-08-30T07:05:55;26.70;;;16.03;;
15363;SDS011;7781;49.690;6.472;2023-08-30T07:08:24;27.40;;;15.87;;
15363;SDS011;7781;49.690;6.472;2023-08-30T07:10:53;27.63;;;15.73;;
15363;SDS011;7781;49.690;6.472;2023-08-30T07:13:24;28.40;;;15.90;;
15363;SDS011;7781;49.690;6.472;2023-08-30T07:15:52;28.27;;;16.40;;
15363;SDS011;7781;49.690;6.472;2023-08-30T07:18:21;30.20;;;16.77;;
15363;SDS011;7781;49.690;6.472;2023-08-30T07:20:50;33.30;;;15.93;;
15363;SDS011;7781;49.690;6.472;2023-08-30T07:23:19;30.30;;;15.40;;
15363;SDS011;7781;49.690;6.472;2023-08-30T07:25:47;26.83;;;15.20;;
15363;SDS011;7781;49.690;6.472;2023-08-30T07:28:16;28.50;;;15.57;;
15363;SDS011;7781;49.690;6.472;2023-08-30T07:30:46;26.27;;;15.07;;
15363;SDS011;7781;49.690;6.472;2023-08-30T07:33:15;31.00;;;15.33;;
15363;SDS011;7781;49.690;6.472;2023-08-30T07:35:44;25.80;;;14.93;;
15363;SDS011;7781;49.690;6.472;2023-08-30T07:38:16;24.53;;;14.63;;
15363;SDS011;7781;49.690;6.472;2023-08-30T07:40:44;19.83;;;13.47;;
15363;SDS011;7781;49.690;6.472;2023-08-30T07:43:13;22.10;;;13.67;;
15363;SDS011;7781;49.690;6.472;2023-08-30T07:45:41;26.57;;;14.40;;
15363;SDS011;7781;49.690;6.472;2023-08-30T07:48:12;27.10;;;15.20;;
15363;SDS011;7781;49.690;6.472;2023-08-30T07:50:40;21.33;;;13.60;;
15363;SDS011;7781;49.690;6.472;2023-08-30T07:53:09;22.00;;;13.17;;
15363;SDS011;7781;49.690;6.472;2023-08-30T07:55:37;19.87;;;13.90;;
15363;SDS011;7781;49.690;6.472;2023-08-30T07:58:07;18.37;;;13.33;;
15363;SDS011;7781;49.690;6.472;2023-08-30T08:00:37;20.20;;;13.80;;
15363;SDS011;7781;49.690;6.472;2023-08-30T08:03:05;19.73;;;13.60;;
15363;SDS011;7781;49.690;6.472;2023-08-30T08:05:36;16.20;;;11.53;;
15363;SDS011;7781;49.690;6.472;2023-08-30T08:08:05;18.50;;;12.57;;
15363;SDS011;7781;49.690;6.472;2023-08-30T08:10:34;18.30;;;13.57;;
15363;SDS011;7781;49.690;6.472;2023-08-30T08:13:02;17.17;;;13.50;;
15363;SDS011;7781;49.690;6.472;2023-08-30T08:15:31;17.17;;;12.57;;
15363;SDS011;7781;49.690;6.472;2023-08-30T08:18:01;18.33;;;12.97;;
15363;SDS011;7781;49.690;6.472;2023-08-30T08:20:30;15.37;;;11.80;;
15363;SDS011;7781;49.690;6.472;2023-08-30T08:23:00;15.87;;;12.00;;
15363;SDS011;7781;49.690;6.472;2023-08-30T08:25:29;15.93;;;10.53;;
15363;SDS011;7781;49.690;6.472;2023-08-30T08:27:58;16.13;;;12.10;;
15363;SDS011;7781;49.690;6.472;2023-08-30T08:30:26;16.53;;;11.70;;
15363;SDS011;7781;49.690;6.472;2023-08-30T08:32:55;14.23;;;10.70;;
15363;SDS011;7781;49.690;6.472;2023-08-30T08:35:25;14.27;;;10.17;;
15363;SDS011;7781;49.690;6.472;2023-08-30T08:37:53;11.87;;;10.30;;
15363;SDS011;7781;49.690;6.472;2023-08-30T08:40:25;14.57;;;10.43;;
15363;SDS011;7781;49.690;6.472;2023-08-30T08:43:09;14.03;;;10.07;;
15363;SDS011;7781;49.690;6.472;2023-08-30T08:45:39;10.87;;;7.50;;
15363;SDS011;7781;49.690;6.472;2023-08-30T08:48:09;12.30;;;8.70;;
15363;SDS011;7781;49.690;6.472;2023-08-30T08:50:38;13.43;;;9.30;;
15363;SDS011;7781;49.690;6.472;2023-08-30T08:53:07;12.50;;;8.50;;
15363;SDS011;7781;49.690;6.472;2023-08-30T08:55:37;12.10;;;8.90;;
15363;SDS011;7781;49.690;6.472;2023-08-30T08:58:07;10.57;;;8.13;;
15363;SDS011;7781;49.690;6.472;2023-08-30T09:00:36;10.17;;;7.93;;
15363;SDS011;7781;49.690;6.472;2023-08-30T09:03:07;9.90;;;7.80;;
15363;SDS011;7781;49.690;6.472;2023-08-30T09:05:41;8.60;;;6.93;;
15363;SDS011;7781;49.690;6.472;2023-08-30T09:08:10;11.67;;;7.00;;
15363;SDS011;7781;49.690;6.472;2023-08-30T09:10:43;8.10;;;6.73;;
15363;SDS011;7781;49.690;6.472;2023-08-30T09:13:13;12.23;;;7.53;;
15363;SDS011;7781;49.690;6.472;2023-08-30T09:15:42;8.60;;;6.50;;
15363;SDS011;7781;49.690;6.472;2023-08-30T09:18:17;7.60;;;6.50;;
15363;SDS011;7781;49.690;6.472;2023-08-30T09:20:46;9.30;;;6.33;;
15363;SDS011;7781;49.690;6.472;2023-08-30T09:23:17;6.73;;;6.00;;
15363;SDS011;7781;49.690;6.472;2023-08-30T09:25:53;10.10;;;5.93;;
15363;SDS011;7781;49.690;6.472;2023-08-30T09:28:23;9.67;;;6.57;;
15363;SDS011;7781;49.690;6.472;2023-08-30T09:30:51;9.73;;;5.80;;
15363;SDS011;7781;49.690;6.472;2023-08-30T09:33:20;7.60;;;5.63;;
15363;SDS011;7781;49.690;6.472;2023-08-30T09:35:49;12.50;;;6.23;;
15363;SDS011;7781;49.690;6.472;2023-08-30T09:38:18;7.40;;;6.17;;
15363;SDS011;7781;49.690;6.472;2023-08-30T09:40:48;6.50;;;5.70;;
15363;SDS011;7781;49.690;6.472;2023-08-30T09:43:18;7.17;;;6.03;;
15363;SDS011;7781;49.690;6.472;2023-08-30T09:45:49;11.53;;;5.77;;
15363;SDS011;7781;49.690;6.472;2023-08-30T09:48:20;7.53;;;5.70;;
15363;SDS011;7781;49.690;6.472;2023-08-30T09:50:52;8.23;;;5.50;;
15363;SDS011;7781;49.690;6.472;2023-08-30T09:53:23;7.20;;;5.80;;
15363;SDS011;7781;49.690;6.472;2023-08-30T09:55:55;8.60;;;5.00;;
15363;SDS011;7781;49.690;6.472;2023-08-30T09:58:25;6.80;;;5.40;;
15363;SDS011;7781;49.690;6.472;2023-08-30T10:00:57;6.20;;;5.60;;
15363;SDS011;7781;49.690;6.472;2023-08-30T10:03:31;10.90;;;5.13;;
15363;SDS011;7781;49.690;6.472;2023-08-30T10:06:03;8.10;;;5.70;;
15363;SDS011;7781;49.690;6.472;2023-08-30T10:08:33;8.10;;;5.07;;
15363;SDS011;7781;49.690;6.472;2023-08-30T10:11:07;8.60;;;5.90;;
15363;SDS011;7781;49.690;6.472;2023-08-30T10:13:37;10.40;;;5.90;;
15363;SDS011;7781;49.690;6.472;2023-08-30T10:16:12;11.73;;;5.70;;
15363;SDS011;7781;49.690;6.472;2023-08-30T10:18:46;8.60;;;5.33;;
15363;SDS011;7781;49.690;6.472;2023-08-30T10:21:32;7.10;;;5.13;;
15363;SDS011;7781;49.690;6.472;2023-08-30T10:24:06;7.30;;;4.80;;
15363;SDS011;7781;49.690;6.472;2023-08-30T10:26:57;8.67;;;5.67;;
15363;SDS011;7781;49.690;6.472;2023-08-30T10:29:28;9.33;;;4.83;;
15363;SDS011;7781;49.690;6.472;2023-08-30T10:32:01;7.17;;;4.40;;
15363;SDS011;7781;49.690;6.472;2023-08-30T10:34:32;9.20;;;5.13;;
15363;SDS011;7781;49.690;6.472;2023-08-30T10:37:05;6.47;;;3.83;;
15363;SDS011;7781;49.690;6.472;2023-08-30T10:39:35;7.47;;;4.97;;
15363;SDS011;7781;49.690;6.472;2023-08-30T10:42:10;7.13;;;4.60;;
15363;SDS011;7781;49.690;6.472;2023-08-30T10:44:48;7.10;;;5.20;;
15363;SDS011;7781;49.690;6.472;2023-08-30T10:47:37;6.57;;;4.57;;
15363;SDS011;7781;49.690;6.472;2023-08-30T10:50:08;5.73;;;3.53;;
15363;SDS011;7781;49.690;6.472;2023-08-30T10:52:38;9.27;;;4.50;;
15363;SDS011;7781;49.690;6.472;2023-08-30T10:55:07;8.30;;;4.20;;
15363;SDS011;7781;49.690;6.472;2023-08-30T10:57:41;4.77;;;3.30;;
15363;SDS011;7781;49.690;6.472;2023-08-30T11:00:11;3.77;;;2.77;;
15363;SDS011;7781;49.690;6.472;2023-08-30T11:02:48;8.00;;;3.53;;
15363;SDS011;7781;49.690;6.472;2023-08-30T11:05:21;4.17;;;3.03;;
15363;SDS011;7781;49.690;6.472;2023-08-30T11:07:51;7.83;;;3.53;;
15363;SDS011;7781;49.690;6.472;2023-08-30T11:10:20;4.30;;;3.10;;
15363;SDS011;7781;49.690;6.472;2023-08-30T11:12:52;4.50;;;2.60;;
15363;SDS011;7781;49.690;6.472;2023-08-30T11:15:21;5.73;;;2.67;;
15363;SDS011;7781;49.690;6.472;2023-08-30T11:17:49;4.53;;;2.77;;
15363;SDS011;7781;49.690;6.472;2023-08-30T11:20:18;10.20;;;3.50;;
15363;SDS011;7781;49.690;6.472;2023-08-30T11:22:48;6.50;;;3.03;;
15363;SDS011;7781;49.690;6.472;2023-08-30T11:25:19;7.53;;;2.97;;
15363;SDS011;7781;49.690;6.472;2023-08-30T11:27:47;6.60;;;2.67;;
15363;SDS011;7781;49.690;6.472;2023-08-30T11:30:17;3.90;;;2.70;;
15363;SDS011;7781;49.690;6.472;2023-08-30T11:32:48;7.53;;;2.67;;
15363;SDS011;7781;49.690;6.472;2023-08-30T11:35:18;3.47;;;2.23;;
15363;SDS011;7781;49.690;6.472;2023-08-30T11:37:49;6.27;;;2.47;;
15363;SDS011;7781;49.690;6.472;2023-08-30T11:40:18;7.67;;;2.77;;
15363;SDS011;7781;49.690;6.472;2023-08-30T11:42:47;4.07;;;2.50;;
15363;SDS011;7781;49.690;6.472;2023-08-30T11:45:21;4.00;;;2.93;;
15363;SDS011;7781;49.690;6.472;2023-08-30T11:47:50;3.07;;;2.50;;
15363;SDS011;7781;49.690;6.472;2023-08-30T11:50:20;6.37;;;2.43;;
15363;SDS011;7781;49.690;6.472;2023-08-30T11:52:51;5.80;;;2.37;;
15363;SDS011;7781;49.690;6.472;2023-08-30T11:55:20;5.20;;;2.70;;
15363;SDS011;7781;49.690;6.472;2023-08-30T11:57:50;3.40;;;2.20;;
15363;SDS011;7781;49.690;6.472;2023-08-30T12:00:22;3.40;;;2.70;;
15363;SDS011;7781;49.690;6.472;2023-08-30T12:02:53;3.13;;;2.87;;
15363;SDS011;7781;49.690;6.472;2023-08-30T12:05:22;2.87;;;2.27;;
15363;SDS011;7781;49.690;6.472;2023-08-30T12:07:50;4.33;;;2.60;;
15363;SDS011;7781;49.690;6.472;2023-08-30T12:10:20;4.83;;;1.97;;
15363;SDS011;7781;49.690;6.472;2023-08-30T12:12:48;6.10;;;2.37;;
15363;SDS011;7781;49.690;6.472;2023-08-30T12:15:16;8.07;;;2.40;;
15363;SDS011;7781;49.690;6.472;2023-08-30T12:17:47;4.60;;;2.70;;
15363;SDS011;7781;49.690;6.472;2023-08-30T12:20:17;7.10;;;2.70;;
15363;SDS011;7781;49.690;6.472;2023-08-30T12:22:47;3.20;;;2.50;;
15363;SDS011;7781;49.690;6.472;2023-08-30T12:25:18;6.20;;;2.23;;
15363;SDS011;7781;49.690;6.472;2023-08-30T12:27:48;3.50;;;2.30;;
15363;SDS011;7781;49.690;6.472;2023-08-30T12:30:17;2.40;;;2.13;;
15363;SDS011;7781;49.690;6.472;2023-08-30T12:32:48;5.43;;;2.30;;
15363;SDS011;7781;49.690;6.472;2023-08-30T12:35:17;3.00;;;2.40;;
15363;SDS011;7781;49.690;6.472;2023-08-30T12:37:46;3.37;;;2.47;;
15363;SDS011;7781;49.690;6.472;2023-08-30T12:40:15;3.80;;;2.40;;
15363;SDS011;7781;49.690;6.472;2023-08-30T12:42:43;4.10;;;2.37;;
15363;SDS011;7781;49.690;6.472;2023-08-30T12:45:12;4.63;;;2.40;;
15363;SDS011;7781;49.690;6.472;2023-08-30T12:47:40;3.57;;;2.63;;
15363;SDS011;7781;49.690;6.472;2023-08-30T12:50:10;4.50;;;2.37;;
15363;SDS011;7781;49.690;6.472;2023-08-30T12:52:40;6.37;;;2.30;;
15363;SDS011;7781;49.690;6.472;2023-08-30T12:55:08;5.10;;;2.80;;
15363;SDS011;7781;49.690;6.472;2023-08-30T12:57:39;4.40;;;3.10;;
15363;SDS011;7781;49.690;6.472;2023-08-30T13:00:07;5.77;;;3.33;;
15363;SDS011;7781;49.690;6.472;2023-08-30T13:02:37;16.23;;;3.30;;
15363;SDS011;7781;49.690;6.472;2023-08-30T13:05:05;6.23;;;3.03;;
15363;SDS011;7781;49.690;6.472;2023-08-30T13:07:36;4.57;;;3.00;;
15363;SDS011;7781;49.690;6.472;2023-08-30T13:10:05;3.70;;;3.13;;
15363;SDS011;7781;49.690;6.472;2023-08-30T13:12:36;6.27;;;3.43;;
15363;SDS011;7781;49.690;6.472;2023-08-30T13:15:09;5.10;;;3.40;;
15363;SDS011;7781;49.690;6.472;2023-08-30T13:17:38;4.33;;;2.93;;
15363;SDS011;7781;49.690;6.472;2023-08-30T13:20:07;2.40;;;2.20;;
15363;SDS011;7781;49.690;6.472;2023-08-30T13:22:39;2.50;;;2.30;;
15363;SDS011;7781;49.690;6.472;2023-08-30T13:25:07;3.93;;;2.70;;
15363;SDS011;7781;49.690;6.472;2023-08-30T13:27:36;5.40;;;2.60;;
15363;SDS011;7781;49.690;6.472;2023-08-30T13:30:06;3.80;;;2.30;;
15363;SDS011;7781;49.690;6.472;2023-08-30T13:32:38;4.50;;;2.73;;
15363;SDS011;7781;49.690;6.472;2023-08-30T13:35:07;4.90;;;3.03;;
15363;SDS011;7781;49.690;6.472;2023-08-30T13:37:39;8.73;;;2.93;;
15363;SDS011;7781;49.690;6.472;2023-08-30T13:40:07;5.03;;;2.30;;
15363;SDS011;7781;49.690;6.472;2023-08-30T13:42:37;2.40;;;2.03;;
15363;SDS011;7781;49.690;6.472;2023-08-30T13:45:06;4.73;;;2.70;;
15363;SDS011;7781;49.690;6.472;2023-08-30T13:47:36;2.67;;;2.30;;
15363;SDS011;7781;49.690;6.472;2023-08-30T13:50:05;3.00;;;2.60;;
15363;SDS011;7781;49.690;6.472;2023-08-30T13:52:34;4.57;;;3.00;;
15363;SDS011;7781;49.690;6.472;2023-08-30T13:55:07;6.93;;;2.80;;
15363;SDS011;7781;49.690;6.472;2023-08-30T13:57:35;3.40;;;3.10;;
15363;SDS011;7781;49.690;6.472;2023-08-30T14:00:04;4.10;;;3.20;;
15363;SDS011;7781;49.690;6.472;2023-08-30T14:02:36;5.63;;;3.80;;
15363;SDS011;7781;49.690;6.472;2023-08-30T14:05:05;8.03;;;3.50;;
15363;SDS011;7781;49.690;6.472;2023-08-30T14:07:34;5.97;;;2.50;;
15363;SDS011;7781;49.690;6.472;2023-08-30T14:10:03;3.90;;;2.80;;
15363;SDS011;7781;49.690;6.472;2023-08-30T14:12:35;4.70;;;2.53;;
15363;SDS011;7781;49.690;6.472;2023-08-30T14:15:04;3.87;;;2.50;;
15363;SDS011;7781;49.690;6.472;2023-08-30T14:17:33;2.47;;;2.27;;
15363;SDS011;7781;49.690;6.472;2023-08-30T14:20:02;3.50;;;2.20;;
15363;SDS011;7781;49.690;6.472;2023-08-30T14:22:33;3.43;;;2.20;;
15363;SDS011;7781;49.690;6.472;2023-08-30T14:25:02;6.53;;;2.50;;
15363;SDS011;7781;49.690;6.472;2023-08-30T14:27:40;2.53;;;1.77;;
15363;SDS011;7781;49.690;6.472;2023-08-30T14:30:08;1.90;;;1.77;;
15363;SDS011;7781;49.690;6.472;2023-08-30T14:32:37;4.23;;;1.97;;
15363;SDS011;7781;49.690;6.472;2023-08-30T14:35:06;2.00;;;1.90;;
15363;SDS011;7781;49.690;6.472;2023-08-30T14:37:36;2.57;;;1.70;;
15363;SDS011;7781;49.690;6.472;2023-08-30T14:40:08;3.00;;;1.90;;
15363;SDS011;7781;49.690;6.472;2023-08-30T14:42:36;1.97;;;1.67;;
15363;SDS011;7781;49.690;6.472;2023-08-30T14:45:08;2.27;;;1.50;;
15363;SDS011;7781;49.690;6.472;2023-08-30T14:47:38;1.70;;;1.47;;
15363;SDS011;7781;49.690;6.472;2023-08-30T14:50:08;2.03;;;1.30;;
15363;SDS011;7781;49.690;6.472;2023-08-30T14:52:37;2.27;;;1.60;;
15363;SDS011;7781;49.690;6.472;2023-08-30T14:55:06;1.70;;;1.60;;
15363;SDS011;7781;49.690;6.472;2023-08-30T14:57:35;1.77;;;1.67;;
15363;SDS011;7781;49.690;6.472;2023-08-30T15:00:05;1.70;;;1.53;;
15363;SDS011;7781;49.690;6.472;2023-08-30T15:02:36;3.30;;;2.30;;
15363;SDS011;7781;49.690;6.472;2023-08-30T15:05:05;1.80;;;1.43;;
15363;SDS011;7781;49.690;6.472;2023-08-30T15:07:34;6.30;;;1.90;;